Time;durP1;ratioP1;P1;durP2;ratioP2;P2;SDS_P1;SDS_P2;PMS_P1;PMS_P2;Temp;Humidity;BMP_temperature;BMP_pressure;BME280_temperature;BME280_humidity;BME280_pressure;Samples;Min_cycle;Max_cycle;Signal;HPM_P1;HPM_P2
2021/06/30 00:02:09;;;;;;;2.50;1.37;;;17.50;99.90;;;;;;5032866;28;20500;-74
2021/06/30 00:04:41;;;;;;;5.30;1.70;;;17.60;99.90;;;;;;5034350;28;20463;-74
2021/06/30 00:07:12;;;;;;;2.00;1.70;;;17.60;99.90;;;;;;5014666;28;20456;-74
2021/06/30 00:09:44;;;;;;;2.00;1.80;;;17.60;99.90;;;;;;5014524;28;20488;-74
2021/06/30 00:12:16;;;;;;;1.80;1.60;;;17.70;99.90;;;;;;4996399;28;20488;-74
2021/06/30 00:14:48;;;;;;;3.90;1.60;;;17.70;99.90;;;;;;5014501;28;20817;-74
2021/06/30 00:17:20;;;;;;;1.70;1.30;;;17.70;99.90;;;;;;5001711;28;20528;-74
2021/06/30 00:19:51;;;;;;;4.23;1.70;;;17.70;99.90;;;;;;5033895;28;20519;-74
2021/06/30 00:22:23;;;;;;;2.13;1.60;;;17.70;99.90;;;;;;5032365;28;20556;-74
2021/06/30 00:24:55;;;;;;;1.63;1.10;;;17.80;99.90;;;;;;5034026;28;20420;-74
2021/06/30 00:27:27;;;;;;;1.80;1.37;;;17.70;99.90;;;;;;5033364;28;20462;-74
2021/06/30 00:29:59;;;;;;;2.63;1.13;;;17.70;99.90;;;;;;5032631;28;20456;-74
2021/06/30 00:32:30;;;;;;;6.40;1.57;;;17.60;99.90;;;;;;5020766;28;20552;-74
2021/06/30 00:35:03;;;;;;;1.53;1.43;;;17.60;99.90;;;;;;5014014;28;20469;-74
2021/06/30 00:37:35;;;;;;;1.30;1.17;;;17.70;99.90;;;;;;5015952;28;20551;-75
2021/06/30 00:40:09;;;;;;;2.37;1.53;;;17.70;99.90;;;;;;5033657;28;20463;-75
2021/06/30 00:42:40;;;;;;;1.90;1.23;;;17.70;99.90;;;;;;5032023;28;20826;-75
2021/06/30 00:45:16;;;;;;;1.40;1.30;;;17.70;99.90;;;;;;5030959;28;20436;-74
2021/06/30 00:47:48;;;;;;;1.70;1.10;;;17.70;99.90;;;;;;5033166;28;20806;-75
2021/06/30 00:50:20;;;;;;;2.53;1.43;;;17.60;99.90;;;;;;5033386;28;20508;-75
2021/06/30 00:52:52;;;;;;;1.03;0.90;;;17.60;99.90;;;;;;5015844;28;20468;-75
2021/06/30 00:55:24;;;;;;;1.03;0.93;;;17.60;99.90;;;;;;5025496;28;20474;-74
2021/06/30 00:57:57;;;;;;;3.47;0.90;;;17.60;99.90;;;;;;5017380;28;21047;-74
2021/06/30 01:00:29;;;;;;;1.20;0.97;;;17.60;99.90;;;;;;5033550;28;20494;-74
2021/06/30 01:03:02;;;;;;;1.10;1.00;;;17.60;99.90;;;;;;5032659;28;20492;-74
2021/06/30 01:05:34;;;;;;;1.20;1.10;;;17.60;99.90;;;;;;5032731;28;20494;-74
2021/06/30 01:08:06;;;;;;;1.37;1.20;;;17.60;99.90;;;;;;5030823;28;20875;-74
2021/06/30 01:10:38;;;;;;;1.37;0.80;;;17.60;99.90;;;;;;5033237;28;20468;-74
2021/06/30 01:13:09;;;;;;;1.60;0.70;;;17.50;99.90;;;;;;5031275;28;20460;-74
2021/06/30 01:15:47;;;;;;;1.43;1.20;;;17.50;99.90;;;;;;4991397;28;20995;-74
2021/06/30 01:18:21;;;;;;;1.30;0.73;;;17.50;99.90;;;;;;5013343;28;20528;-74
2021/06/30 01:20:53;;;;;;;1.63;1.00;;;17.40;99.90;;;;;;5012916;28;20420;-74
2021/06/30 01:23:25;;;;;;;1.33;1.10;;;17.40;99.90;;;;;;5022600;28;20494;-74
2021/06/30 01:25:58;;;;;;;2.60;1.27;;;17.30;99.90;;;;;;5032301;28;20432;-74
2021/06/30 01:28:30;;;;;;;2.40;1.00;;;17.30;99.90;;;;;;5029599;28;20462;-74
2021/06/30 01:31:04;;;;;;;2.43;0.80;;;17.30;99.90;;;;;;5012628;28;21077;-74
2021/06/30 01:33:35;;;;;;;1.73;1.40;;;17.30;99.90;;;;;;5028208;28;20468;-74
2021/06/30 01:36:07;;;;;;;1.30;1.03;;;17.30;99.90;;;;;;5012312;28;20548;-74
2021/06/30 01:38:39;;;;;;;1.47;0.77;;;17.30;99.90;;;;;;5024189;28;20482;-74
2021/06/30 01:41:14;;;;;;;0.80;0.80;;;17.20;99.90;;;;;;5032100;28;20475;-74
2021/06/30 01:43:47;;;;;;;1.00;0.70;;;17.20;99.90;;;;;;5031097;28;20469;-74
2021/06/30 01:46:18;;;;;;;3.23;1.10;;;17.20;99.90;;;;;;5031001;28;20499;-74
2021/06/30 01:48:50;;;;;;;1.20;0.70;;;17.10;99.90;;;;;;5032686;28;20475;-74
2021/06/30 01:51:22;;;;;;;3.10;1.17;;;17.10;99.90;;;;;;5031651;28;20873;-74
2021/06/30 01:54:00;;;;;;;1.30;1.00;;;17.10;99.90;;;;;;5031430;28;20476;-74
2021/06/30 01:56:33;;;;;;;2.20;1.17;;;17.10;99.90;;;;;;5031674;28;20451;-74
2021/06/30 01:59:11;;;;;;;2.43;1.03;;;17.00;99.90;;;;;;5032161;28;20436;-74
2021/06/30 02:01:43;;;;;;;1.23;0.83;;;17.00;99.90;;;;;;5013734;28;20495;-74
2021/06/30 02:04:15;;;;;;;1.63;0.80;;;16.90;99.90;;;;;;5032348;28;20478;-74
2021/06/30 02:06:47;;;;;;;2.50;1.30;;;16.90;99.90;;;;;;5031411;28;20558;-74
2021/06/30 02:09:19;;;;;;;4.13;1.37;;;16.90;99.90;;;;;;5010412;28;20939;-74
2021/06/30 02:11:50;;;;;;;4.27;0.73;;;16.80;99.90;;;;;;5011474;28;20489;-74
2021/06/30 02:14:22;;;;;;;1.33;0.90;;;16.80;99.90;;;;;;5012542;28;20791;-74
2021/06/30 02:16:54;;;;;;;1.17;0.93;;;16.80;99.90;;;;;;5012699;28;20552;-74
2021/06/30 02:19:26;;;;;;;2.57;1.57;;;16.70;99.90;;;;;;5013551;28;20526;-74
2021/06/30 02:21:57;;;;;;;2.10;1.33;;;16.70;99.90;;;;;;5031247;28;20985;-74
2021/06/30 02:24:29;;;;;;;1.10;1.00;;;16.70;99.90;;;;;;5012569;28;20989;-74
2021/06/30 02:27:01;;;;;;;1.50;1.40;;;16.60;99.90;;;;;;5011460;28;20543;-74
2021/06/30 02:29:33;;;;;;;2.30;1.50;;;16.60;99.90;;;;;;5010989;28;20519;-74
2021/06/30 02:32:05;;;;;;;1.70;1.10;;;16.50;99.90;;;;;;5011061;28;20903;-74
2021/06/30 02:34:37;;;;;;;1.97;1.30;;;16.50;99.90;;;;;;5013323;28;20511;-74
2021/06/30 02:37:09;;;;;;;3.37;1.10;;;16.50;99.90;;;;;;5030572;28;20452;-74
2021/06/30 02:39:41;;;;;;;3.43;1.53;;;16.50;99.90;;;;;;5011962;28;20424;-74
2021/06/30 02:42:13;;;;;;;2.20;1.40;;;16.50;99.90;;;;;;5011337;28;20871;-73
2021/06/30 02:44:45;;;;;;;2.23;1.30;;;16.50;99.90;;;;;;5012186;28;20429;-73
2021/06/30 02:47:17;;;;;;;1.93;1.37;;;16.50;99.90;;;;;;5011264;28;20560;-73
2021/06/30 02:49:49;;;;;;;2.60;1.30;;;16.40;99.90;;;;;;5011893;28;20564;-73
2021/06/30 02:52:21;;;;;;;1.90;1.40;;;16.40;99.90;;;;;;4995711;28;20468;-73
2021/06/30 02:54:47;;;;;;;3.00;1.67;;;16.40;99.90;;;;;;5031601;28;20426;-74
2021/06/30 02:57:19;;;;;;;5.83;1.53;;;16.40;99.90;;;;;;5014349;28;20903;-73
2021/06/30 02:59:51;;;;;;;1.87;1.00;;;16.40;99.90;;;;;;5031530;28;20523;-73
2021/06/30 03:02:23;;;;;;;2.73;1.77;;;16.40;99.90;;;;;;5029665;28;21054;-73
2021/06/30 03:04:55;;;;;;;1.43;1.00;;;16.30;99.90;;;;;;5041707;28;20439;-74
2021/06/30 03:07:27;;;;;;;1.23;1.13;;;16.40;99.90;;;;;;5047480;28;20486;-74
2021/06/30 03:09:59;;;;;;;2.30;1.37;;;16.50;99.90;;;;;;5030171;28;20551;-74
2021/06/30 03:12:31;;;;;;;3.00;1.67;;;16.50;99.90;;;;;;5030950;28;20451;-74
2021/06/30 03:15:05;;;;;;;4.13;1.40;;;16.60;99.90;;;;;;5031252;28;20466;-74
2021/06/30 03:17:37;;;;;;;2.13;1.27;;;16.50;99.90;;;;;;5029658;28;21000;-73
2021/06/30 03:20:07;;;;;;;3.23;0.80;;;16.40;99.90;;;;;;5031200;28;20485;-73
2021/06/30 03:22:34;;;;;;;4.67;1.23;;;16.30;99.90;;;;;;5029642;28;20538;-73
2021/06/30 03:25:08;;;;;;;6.30;2.30;;;16.20;99.90;;;;;;5022152;28;20856;-73
2021/06/30 03:27:41;;;;;;;2.23;1.27;;;16.10;99.90;;;;;;5010853;28;20571;-73
2021/06/30 03:30:14;;;;;;;5.67;1.30;;;16.10;99.90;;;;;;5013346;28;20510;-73
2021/06/30 03:32:41;;;;;;;2.07;1.40;;;16.20;99.90;;;;;;5019336;28;20538;-73
2021/06/30 03:35:13;;;;;;;3.17;1.17;;;16.30;99.90;;;;;;5034059;28;20424;-73
2021/06/30 03:37:44;;;;;;;2.50;1.37;;;16.30;99.90;;;;;;5032524;28;20464;-73
2021/06/30 03:40:16;;;;;;;1.90;1.20;;;16.30;99.90;;;;;;5018180;28;20686;-73
2021/06/30 03:42:48;;;;;;;3.03;1.67;;;16.40;99.90;;;;;;5034050;28;20498;-73
2021/06/30 03:45:20;;;;;;;2.10;1.47;;;16.40;99.90;;;;;;5034451;28;20930;-73
2021/06/30 03:47:52;;;;;;;2.60;1.30;;;16.50;99.90;;;;;;5014065;28;20465;-73
2021/06/30 03:50:24;;;;;;;3.47;1.57;;;16.50;99.90;;;;;;5018690;28;20467;-73
2021/06/30 03:52:55;;;;;;;2.00;1.80;;;16.50;99.90;;;;;;5033360;28;20463;-73
2021/06/30 03:55:27;;;;;;;2.63;1.33;;;16.60;99.90;;;;;;5034823;28;20514;-73
2021/06/30 03:57:59;;;;;;;2.13;1.43;;;16.60;99.90;;;;;;5033691;28;20848;-73
2021/06/30 04:00:31;;;;;;;2.33;1.27;;;16.70;99.90;;;;;;5029691;28;21088;-73
2021/06/30 04:03:03;;;;;;;2.30;1.50;;;16.80;99.90;;;;;;5016107;28;20543;-73
2021/06/30 04:05:34;;;;;;;2.30;1.57;;;16.80;99.90;;;;;;5034592;28;20428;-73
2021/06/30 04:08:10;;;;;;;3.00;1.47;;;16.80;99.90;;;;;;5032410;28;20483;-73
2021/06/30 04:10:43;;;;;;;3.50;1.80;;;16.90;99.90;;;;;;5034241;28;20566;-73
2021/06/30 04:13:16;;;;;;;2.40;1.90;;;16.90;99.90;;;;;;5016222;28;20483;-73
2021/06/30 04:15:48;;;;;;;4.10;1.70;;;16.90;99.90;;;;;;5032783;28;20444;-74
2021/06/30 04:18:19;;;;;;;9.43;2.10;;;16.90;99.90;;;;;;5034784;28;20519;-73
2021/06/30 04:20:51;;;;;;;2.50;1.70;;;16.80;99.90;;;;;;5033837;28;20997;-73
2021/06/30 04:23:23;;;;;;;6.50;2.03;;;16.70;99.90;;;;;;5023615;28;20492;-73
2021/06/30 04:25:55;;;;;;;4.70;2.07;;;16.50;99.90;;;;;;5013815;28;20520;-73
2021/06/30 04:28:26;;;;;;;6.10;2.20;;;16.40;99.90;;;;;;5013201;28;20468;-73
2021/06/30 04:30:59;;;;;;;3.17;2.40;;;16.40;99.90;;;;;;5021490;28;20500;-73
2021/06/30 04:33:30;;;;;;;5.97;2.17;;;16.40;99.90;;;;;;5017354;28;20843;-73
2021/06/30 04:36:02;;;;;;;7.50;2.50;;;16.20;99.90;;;;;;5033064;28;20431;-73
2021/06/30 04:38:34;;;;;;;3.07;2.20;;;16.20;99.90;;;;;;5033235;28;20483;-73
2021/06/30 04:41:08;;;;;;;6.30;2.23;;;16.20;99.90;;;;;;5032129;28;20424;-73
2021/06/30 04:43:40;;;;;;;4.10;2.63;;;16.20;99.90;;;;;;5033735;28;20471;-73
2021/06/30 04:46:12;;;;;;;4.30;2.23;;;16.20;99.90;;;;;;5032122;28;20983;-73
2021/06/30 04:48:44;;;;;;;4.00;2.70;;;16.30;99.90;;;;;;5033585;28;20524;-73
2021/06/30 04:51:11;;;;;;;6.33;2.40;;;16.40;99.90;;;;;;5035056;28;20499;-73
2021/06/30 04:53:46;;;;;;;4.03;2.43;;;16.50;99.90;;;;;;5031991;28;20521;-73
2021/06/30 04:56:26;;;;;;;4.23;3.00;;;16.60;99.90;;;;;;5031769;28;20858;-73
2021/06/30 04:58:58;;;;;;;2.70;1.60;;;16.70;99.90;;;;;;5033315;28;20519;-73
2021/06/30 05:01:30;;;;;;;3.10;2.17;;;16.70;99.90;;;;;;5032891;28;20494;-74
2021/06/30 05:04:03;;;;;;;4.67;2.53;;;16.80;99.90;;;;;;5032773;28;20480;-73
2021/06/30 05:06:30;;;;;;;6.23;2.63;;;16.90;99.90;;;;;;5032995;28;20476;-74
2021/06/30 05:09:04;;;;;;;3.50;2.43;;;16.90;99.90;;;;;;5032152;28;20826;-73
2021/06/30 05:11:36;;;;;;;2.83;2.30;;;17.00;99.90;;;;;;5032431;28;20853;-73
2021/06/30 05:14:08;;;;;;;3.70;2.57;;;17.00;99.90;;;;;;5015307;28;20483;-73
2021/06/30 05:16:40;;;;;;;6.13;4.83;;;17.00;99.90;;;;;;5021766;28;20982;-73
2021/06/30 05:19:12;;;;;;;7.93;5.77;;;16.90;99.90;;;;;;5012150;28;20445;-73
2021/06/30 05:21:41;;;;;;;6.20;3.40;;;16.90;99.90;;;;;;5032055;28;20468;-73
2021/06/30 05:24:28;;;;;;;3.57;2.67;;;16.80;99.90;;;;;;5031549;28;20890;-73
2021/06/30 05:27:06;;;;;;;3.40;2.27;;;16.70;99.90;;;;;;5029942;28;20452;-73
2021/06/30 05:29:40;;;;;;;3.50;2.23;;;16.60;99.90;;;;;;5015096;28;20424;-73
2021/06/30 05:32:08;;;;;;;2.27;1.70;;;16.50;99.90;;;;;;5012798;28;20508;-73
2021/06/30 05:34:42;;;;;;;2.63;2.00;;;16.50;99.90;;;;;;5031386;28;20767;-73
2021/06/30 05:37:13;;;;;;;2.43;1.70;;;16.60;99.90;;;;;;5011935;28;20471;-73
2021/06/30 05:39:47;;;;;;;1.70;1.30;;;16.60;99.90;;;;;;4995709;28;20433;-73
2021/06/30 05:42:26;;;;;;;3.70;2.03;;;16.60;99.90;;;;;;4978329;28;20501;-73
2021/06/30 05:44:58;;;;;;;5.60;2.30;;;16.60;99.90;;;;;;4995676;28;20532;-73
2021/06/30 05:47:28;;;;;;;2.23;1.77;;;16.60;99.90;;;;;;4994019;28;20486;-73
2021/06/30 05:50:23;;;;;;;3.63;2.27;;;16.50;99.90;;;;;;4983105;28;20437;-73
2021/06/30 05:53:29;;;;;;;1.37;1.13;;;16.50;99.90;;;;;;4999679;28;20475;-73
2021/06/30 05:56:20;;;;;;;2.30;1.37;;;16.50;99.90;;;;;;5016430;28;20973;-73
2021/06/30 05:59:33;;;;;;;5.00;0.93;;;16.50;99.90;;;;;;5016999;28;20440;-73
2021/06/30 06:02:13;;;;;;;1.70;1.43;;;16.50;99.90;;;;;;5014473;28;20475;-73
2021/06/30 06:04:43;;;;;;;2.77;2.30;;;16.60;99.90;;;;;;5030982;28;20515;-73
2021/06/30 06:07:21;;;;;;;4.83;2.80;;;16.60;99.90;;;;;;5012008;28;20460;-73
2021/06/30 06:09:56;;;;;;;2.10;1.63;;;16.70;99.90;;;;;;5011260;28;20417;-73
2021/06/30 06:12:48;;;;;;;1.17;1.07;;;16.60;99.90;;;;;;4994126;28;20469;-73
2021/06/30 06:15:27;;;;;;;2.47;1.40;;;16.60;99.90;;;;;;4996700;28;20413;-73
2021/06/30 06:18:08;;;;;;;3.43;1.20;;;16.70;99.90;;;;;;5001280;28;20469;-80
2021/06/30 06:20:42;;;;;;;3.20;1.40;;;16.80;99.90;;;;;;5032495;28;20434;-79
2021/06/30 06:29:49;;;;;;;1.03;0.63;;;16.90;99.90;;;;;;4912937;29;20492;-80
2021/06/30 06:38:45;;;;;;;;;;;;;;;;;;;;;
2021/06/30 06:53:58;;;;;;;1.83;1.50;;;17.10;99.90;;;;;;4811095;29;20906;-72
2021/06/30 07:00:51;;;;;;;1.63;1.07;;;17.10;99.90;;;;;;4875726;29;20447;-72
2021/06/30 07:04:35;;;;;;;1.43;0.80;;;17.10;99.90;;;;;;4875019;29;20844;-73
2021/06/30 07:08:19;;;;;;;6.00;1.43;;;17.20;99.90;;;;;;4873668;29;20996;-72
2021/06/30 07:11:59;;;;;;;1.17;1.00;;;17.30;99.90;;;;;;4919317;28;20471;-72
2021/06/30 07:15:42;;;;;;;0.60;0.40;;;17.50;99.90;;;;;;4940449;29;20521;-72
2021/06/30 07:32:21;;;;;;;;;;;;;;;;;;;;;
2021/06/30 07:36:11;;;;;;;0.93;0.73;;;17.70;99.90;;;;;;4935242;29;20429;-72
2021/06/30 07:43:19;;;;;;;6.03;0.90;;;17.60;99.90;;;;;;4880888;29;20702;-72
2021/06/30 07:47:18;;;;;;;0.93;0.87;;;17.40;99.90;;;;;;4911167;28;20710;-72
2021/06/30 07:50:52;;;;;;;2.70;1.10;;;17.30;99.90;;;;;;4931043;29;20436;-72
2021/06/30 07:53:53;;;;;;;1.93;0.93;;;17.40;99.90;;;;;;4928744;29;20566;-72
2021/06/30 07:57:29;;;;;;;1.30;1.20;;;17.40;99.90;;;;;;4934018;28;20461;-72
2021/06/30 08:00:48;;;;;;;1.67;1.57;;;17.40;99.90;;;;;;4930097;29;20428;-72
2021/06/30 08:04:30;;;;;;;1.93;1.40;;;17.60;99.90;;;;;;4964608;28;20437;-72
2021/06/30 08:16:14;;;;;;;0.83;0.80;;;17.40;99.90;;;;;;4981913;28;20558;-73
2021/06/30 08:31:54;;;;;;;1.40;1.10;;;17.50;99.90;;;;;;4930062;28;20506;-73
2021/06/30 08:50:51;;;;;;;2.23;1.33;;;17.70;99.90;;;;;;4911025;29;20603;-72
2021/06/30 08:53:20;;;;;;;1.23;1.13;;;17.70;99.90;;;;;;4914370;29;20461;-72
2021/06/30 08:55:47;;;;;;;1.30;1.13;;;17.70;99.90;;;;;;4915149;29;21122;-72
2021/06/30 09:02:29;;;;;;;1.93;1.00;;;17.90;99.90;;;;;;4939247;28;20463;-72
2021/06/30 09:08:36;;;;;;;2.90;1.03;;;18.10;99.90;;;;;;4916405;29;20843;-72
2021/06/30 09:12:13;;;;;;;1.30;1.10;;;18.10;99.90;;;;;;4923849;28;20482;-72
2021/06/30 09:15:19;;;;;;;1.73;1.43;;;18.20;99.90;;;;;;4957004;28;20437;-72
2021/06/30 09:18:39;;;;;;;1.60;1.50;;;18.10;99.90;;;;;;5004735;28;20860;-72
2021/06/30 09:22:12;;;;;;;2.57;2.10;;;18.20;99.90;;;;;;4981705;28;20488;-72
2021/06/30 09:25:03;;;;;;;2.30;1.97;;;18.40;99.90;;;;;;4998344;28;20468;-72
2021/06/30 09:28:55;;;;;;;4.10;2.13;;;18.30;99.90;;;;;;4977963;28;20560;-72
2021/06/30 09:31:50;;;;;;;3.70;2.67;;;18.30;99.90;;;;;;4983328;28;20465;-72
2021/06/30 09:35:43;;;;;;;2.20;1.63;;;18.40;99.90;;;;;;5003766;28;20429;-72
2021/06/30 09:39:00;;;;;;;3.83;2.03;;;18.30;99.90;;;;;;4966906;28;21033;-72
2021/06/30 09:42:20;;;;;;;3.00;2.50;;;18.50;99.90;;;;;;5004637;28;20476;-72
2021/06/30 09:49:33;;;;;;;3.73;2.63;;;18.70;99.90;;;;;;4971359;28;20486;-72
2021/06/30 09:53:07;;;;;;;3.70;2.90;;;18.70;99.90;;;;;;4945616;28;20476;-72
2021/06/30 09:57:06;;;;;;;;;;;;;;;;;;;;;
2021/06/30 10:05:13;;;;;;;;;;;;;;;;;;;;;
2021/06/30 10:08:54;;;;;;;2.53;2.20;;;19.60;99.90;;;;;;5010767;28;20493;-71
2021/06/30 10:13:02;;;;;;;2.40;2.10;;;19.60;99.90;;;;;;4963519;28;20515;-71
2021/06/30 10:16:55;;;;;;;2.60;2.00;;;19.50;99.90;;;;;;4921236;28;20421;-72
2021/06/30 10:20:18;;;;;;;2.43;2.23;;;19.60;99.90;;;;;;4971611;28;20788;-72
2021/06/30 10:23:43;;;;;;;3.00;2.70;;;19.80;99.90;;;;;;4960080;28;20476;-72
2021/06/30 10:27:57;;;;;;;2.67;2.47;;;19.90;99.90;;;;;;4951371;28;20482;-71
2021/06/30 10:31:44;;;;;;;;;;;;;;;;;;;;;
2021/06/30 10:35:10;;;;;;;2.90;2.70;;;19.90;99.90;;;;;;4913509;29;20807;-72
2021/06/30 10:38:39;;;;;;;3.37;3.07;;;19.90;99.90;;;;;;4898195;29;20477;-72
2021/06/30 10:42:52;;;;;;;3.47;3.07;;;20.10;99.90;;;;;;4892755;29;20512;-72
2021/06/30 10:50:11;;;;;;;;;;;;;;;;;;;;;
2021/06/30 10:53:55;;;;;;;;;;;;;;;;;;;;;
2021/06/30 10:57:34;;;;;;;2.50;2.30;;;19.70;99.90;;;;;;4960713;28;21042;-71
2021/06/30 11:00:40;;;;;;;3.23;2.60;;;19.40;99.90;;;;;;4874597;29;20826;-71
2021/06/30 11:07:37;;;;;;;3.60;2.93;;;19.40;99.90;;;;;;4882760;29;20493;-71
2021/06/30 11:10:25;;;;;;;3.73;3.17;;;19.50;99.90;;;;;;4901528;29;20829;-71
2021/06/30 11:14:03;;;;;;;3.17;2.70;;;19.50;99.90;;;;;;4928032;29;20496;-72
2021/06/30 11:17:14;;;;;;;2.83;2.57;;;19.50;99.90;;;;;;4942715;28;20527;-71
2021/06/30 11:20:21;;;;;;;3.23;2.20;;;19.50;99.90;;;;;;4897033;29;20964;-71
2021/06/30 11:23:25;;;;;;;3.77;3.40;;;19.40;99.90;;;;;;4898352;29;20562;-71
2021/06/30 11:26:41;;;;;;;4.77;3.30;;;19.50;99.90;;;;;;4899329;29;20487;-70
2021/06/30 11:30:00;;;;;;;2.80;2.47;;;19.40;99.90;;;;;;4913453;29;20438;-71
2021/06/30 11:32:36;;;;;;;4.10;2.43;;;19.50;99.90;;;;;;4911167;29;20540;-70
2021/06/30 11:35:37;;;;;;;2.50;2.23;;;19.60;99.90;;;;;;4894864;29;20435;-71
2021/06/30 11:38:22;;;;;;;2.60;2.30;;;19.60;99.90;;;;;;4946840;28;20871;-70
2021/06/30 11:41:12;;;;;;;2.90;2.60;;;19.60;99.90;;;;;;4960096;28;20432;-71
2021/06/30 11:43:48;;;;;;;2.50;2.30;;;19.60;99.90;;;;;;4955177;28;20773;-70
2021/06/30 11:46:23;;;;;;;2.60;1.97;;;19.80;99.90;;;;;;4968520;28;20457;-71
2021/06/30 11:48:53;;;;;;;2.50;2.30;;;19.80;99.90;;;;;;4970411;28;20532;-70
2021/06/30 11:51:23;;;;;;;4.03;2.80;;;19.80;99.90;;;;;;4955259;28;20849;-71
2021/06/30 11:54:21;;;;;;;3.40;2.40;;;20.00;99.90;;;;;;4965187;28;20447;-70
2021/06/30 11:56:58;;;;;;;2.83;2.53;;;19.90;99.90;;;;;;5010465;28;20462;-70
2021/06/30 11:59:30;;;;;;;1.77;1.67;;;19.70;99.90;;;;;;5018525;28;20426;-70
2021/06/30 12:02:00;;;;;;;3.20;1.90;;;19.40;99.90;;;;;;5016217;28;20520;-70
2021/06/30 12:04:36;;;;;;;2.23;1.80;;;19.30;99.90;;;;;;5028205;28;20457;-70
2021/06/30 12:07:10;;;;;;;3.53;2.00;;;19.30;99.90;;;;;;5015861;28;20553;-70
2021/06/30 12:09:49;;;;;;;3.27;2.83;;;19.30;99.90;;;;;;5000355;28;20450;-70
2021/06/30 12:12:54;;;;;;;3.13;2.53;;;19.30;99.90;;;;;;4992224;28;20489;-71
2021/06/30 12:15:40;;;;;;;4.50;2.30;;;19.30;99.90;;;;;;5001348;28;20963;-70
2021/06/30 12:22:01;;;;;;;2.43;1.97;;;19.60;99.90;;;;;;5021358;28;20474;-70
2021/06/30 12:28:44;;;;;;;2.90;2.40;;;20.00;99.90;;;;;;5016176;28;20435;-70
2021/06/30 12:31:21;;;;;;;3.70;2.30;;;20.00;99.90;;;;;;5016377;28;21001;-70
2021/06/30 12:35:05;;;;;;;2.57;1.77;;;20.00;99.90;;;;;;5032969;28;20447;-71
2021/06/30 12:37:43;;;;;;;5.47;4.00;;;20.20;99.90;;;;;;5022484;28;20455;-70
2021/06/30 12:40:26;;;;;;;3.83;3.37;;;20.20;99.90;;;;;;5033460;28;20470;-70
2021/06/30 12:43:21;;;;;;;3.10;2.47;;;20.00;99.90;;;;;;5023154;28;20477;-70
2021/06/30 12:46:22;;;;;;;3.50;2.07;;;19.70;99.90;;;;;;4989694;28;20986;-70
2021/06/30 12:49:34;;;;;;;3.53;2.10;;;19.50;99.90;;;;;;5020483;28;20625;-70
2021/06/30 12:52:35;;;;;;;2.20;1.80;;;19.20;99.90;;;;;;4979891;28;20473;-70
2021/06/30 12:55:58;;;;;;;3.13;2.20;;;19.10;99.90;;;;;;5016276;28;20444;-70
2021/06/30 12:58:53;;;;;;;3.80;2.07;;;19.10;99.90;;;;;;5018521;28;20452;-70
2021/06/30 13:01:39;;;;;;;4.20;2.57;;;19.00;99.90;;;;;;5014063;28;20475;-70
2021/06/30 13:04:22;;;;;;;6.83;4.40;;;19.00;99.90;;;;;;4999539;28;20438;-70
2021/06/30 13:07:07;;;;;;;3.90;2.80;;;18.90;99.90;;;;;;5025194;28;20489;-71
2021/06/30 13:10:30;;;;;;;3.70;2.50;;;18.80;99.90;;;;;;4981515;28;20953;-70
2021/06/30 13:17:34;;;;;;;8.67;3.60;;;18.90;99.90;;;;;;5018170;28;21071;-71
2021/06/30 13:27:51;;;;;;;4.80;2.57;;;19.20;99.90;;;;;;5060095;28;20469;-71
2021/06/30 13:36:47;;;;;;;3.40;3.10;;;19.00;99.90;;;;;;5052687;28;21136;-71
2021/06/30 13:42:39;;;;;;;3.83;2.93;;;19.20;99.90;;;;;;5052414;28;20484;-71
2021/06/30 13:45:13;;;;;;;4.40;2.60;;;19.20;99.90;;;;;;5074672;28;20517;-71
2021/06/30 13:47:53;;;;;;;4.50;2.40;;;19.30;99.90;;;;;;5057168;28;20449;-71
2021/06/30 13:50:41;;;;;;;3.70;2.97;;;19.40;99.90;;;;;;5075006;28;20466;-71
2021/06/30 13:53:34;;;;;;;3.83;3.33;;;19.30;99.90;;;;;;5064026;28;20523;-71
2021/06/30 13:56:11;;;;;;;5.63;2.80;;;19.40;99.90;;;;;;5047776;28;20920;-70
2021/06/30 13:59:22;;;;;;;5.07;3.47;;;19.50;99.90;;;;;;5088975;28;20471;-70
2021/06/30 14:02:08;;;;;;;3.37;2.80;;;19.60;99.90;;;;;;5059408;28;20471;-71
2021/06/30 14:04:47;;;;;;;3.73;3.37;;;19.50;99.90;;;;;;5040023;28;20444;-71
2021/06/30 14:07:39;;;;;;;3.70;3.17;;;19.50;99.90;;;;;;5054532;28;20517;-71
2021/06/30 14:10:28;;;;;;;3.40;2.93;;;19.60;99.90;;;;;;5071131;28;20491;-71
2021/06/30 14:13:16;;;;;;;3.33;3.03;;;19.50;99.90;;;;;;5029883;28;21020;-71
2021/06/30 14:16:34;;;;;;;4.47;3.93;;;19.40;99.90;;;;;;5072748;28;21099;-71
2021/06/30 14:19:52;;;;;;;4.53;4.03;;;19.30;99.90;;;;;;5071779;28;20481;-71
2021/06/30 14:22:39;;;;;;;5.57;4.50;;;19.30;99.90;;;;;;5071324;28;20457;-71
2021/06/30 14:25:20;;;;;;;5.00;4.50;;;19.40;99.90;;;;;;5073073;28;20955;-71
2021/06/30 14:28:13;;;;;;;5.10;4.63;;;19.30;99.90;;;;;;5072675;28;20543;-71
2021/06/30 14:31:01;;;;;;;4.90;4.40;;;19.20;99.90;;;;;;5073774;28;20419;-71
2021/06/30 14:33:55;;;;;;;5.07;4.57;;;19.10;99.90;;;;;;5056804;28;20470;-71
2021/06/30 14:36:57;;;;;;;5.87;5.27;;;19.00;99.90;;;;;;5052349;28;20467;-71
2021/06/30 14:39:50;;;;;;;9.83;6.37;;;19.00;99.90;;;;;;5054372;28;20481;-71
2021/06/30 14:42:58;;;;;;;7.20;6.20;;;18.90;99.90;;;;;;5069650;28;20962;-71
2021/06/30 14:45:59;;;;;;;7.70;6.60;;;18.80;99.90;;;;;;5070118;28;20442;-71
2021/06/30 14:49:17;;;;;;;7.40;6.70;;;18.80;99.90;;;;;;5089716;28;20481;-71
2021/06/30 14:52:34;;;;;;;8.67;6.80;;;18.80;99.90;;;;;;5057862;28;21204;-71
2021/06/30 14:55:37;;;;;;;7.33;6.63;;;18.60;99.90;;;;;;5049627;28;20426;-71
2021/06/30 14:58:23;;;;;;;7.97;6.20;;;18.50;99.90;;;;;;5058449;28;20465;-71
2021/06/30 15:04:46;;;;;;;7.83;7.03;;;18.30;99.90;;;;;;5092348;28;20416;-71
2021/06/30 15:07:29;;;;;;;9.50;7.27;;;18.30;99.90;;;;;;5072837;28;20449;-71
2021/06/30 15:10:19;;;;;;;12.83;6.60;;;18.30;99.90;;;;;;5035118;28;20437;-71
2021/06/30 15:16:21;;;;;;;8.30;6.13;;;18.40;99.90;;;;;;5079362;28;20515;-71
2021/06/30 15:19:34;;;;;;;10.73;7.77;;;18.50;99.90;;;;;;5052965;28;20829;-71
2021/06/30 15:22:58;;;;;;;9.70;6.90;;;18.70;99.90;;;;;;5028746;28;20854;-71
2021/06/30 15:25:49;;;;;;;9.33;7.67;;;18.70;99.90;;;;;;5046804;28;20537;-70
2021/06/30 15:28:31;;;;;;;11.57;7.63;;;18.80;99.90;;;;;;5088730;28;20449;-78
2021/06/30 15:31:10;;;;;;;8.57;7.10;;;18.80;99.90;;;;;;5100144;28;20401;-78
2021/06/30 15:34:09;;;;;;;7.10;6.40;;;18.80;99.90;;;;;;5098460;28;20517;-77
2021/06/30 15:36:49;;;;;;;8.40;7.60;;;18.70;99.90;;;;;;5076430;28;20468;-71
2021/06/30 15:39:28;;;;;;;7.60;6.70;;;18.60;99.90;;;;;;5062073;28;20958;-71
2021/06/30 15:46:01;;;;;;;;;;;;;;;;;;;;;
2021/06/30 15:48:57;;;;;;;7.83;6.23;;;18.80;99.90;;;;;;5056307;28;20527;-71
2021/06/30 15:52:14;;;;;;;5.90;4.87;;;18.80;99.90;;;;;;5057485;28;20457;-71
2021/06/30 15:55:03;;;;;;;4.13;3.73;;;18.80;99.90;;;;;;5062606;28;20445;-70
2021/06/30 15:58:07;;;;;;;7.10;5.27;;;18.70;99.90;;;;;;5092253;28;20922;-70
2021/06/30 16:01:16;;;;;;;5.83;4.90;;;18.50;99.90;;;;;;5082293;28;20437;-71
2021/06/30 16:04:44;;;;;;;5.77;4.50;;;18.50;99.90;;;;;;5077276;28;20584;-70
2021/06/30 16:08:14;;;;;;;6.40;4.37;;;18.70;99.90;;;;;;5080232;28;20437;-70
2021/06/30 16:11:43;;;;;;;7.17;4.70;;;18.60;99.90;;;;;;5082132;28;20954;-70
2021/06/30 16:18:28;;;;;;;7.33;5.13;;;18.40;99.90;;;;;;5042131;28;20476;-72
2021/06/30 16:21:20;;;;;;;12.20;6.80;;;18.40;99.90;;;;;;5071027;28;20476;-70
2021/06/30 16:24:20;;;;;;;8.50;6.23;;;18.30;99.90;;;;;;5061558;28;20545;-70
2021/06/30 16:27:36;;;;;;;9.00;6.23;;;18.20;99.90;;;;;;5066475;28;20469;-70
2021/06/30 16:30:10;;;;;;;7.33;5.63;;;18.10;99.90;;;;;;5077148;28;20441;-70
2021/06/30 16:33:43;;;;;;;7.23;5.47;;;18.00;99.90;;;;;;5069627;28;20810;-70
2021/06/30 16:37:04;;;;;;;7.90;5.17;;;18.10;99.90;;;;;;5043840;28;20544;-70
2021/06/30 16:44:23;;;;;;;4.63;2.47;;;17.90;99.90;;;;;;5072601;28;20417;-71
2021/06/30 16:48:03;;;;;;;4.60;3.17;;;17.90;99.90;;;;;;5070507;28;20452;-70
2021/06/30 16:51:53;;;;;;;4.63;3.10;;;17.90;99.90;;;;;;5093409;28;20439;-71
2021/06/30 17:00:01;;;;;;;6.37;3.47;;;17.90;99.90;;;;;;4892763;29;20435;-71
2021/06/30 17:06:58;;;;;;;4.93;3.33;;;17.80;99.90;;;;;;4940614;29;20455;-71
2021/06/30 17:10:30;;;;;;;6.83;4.40;;;17.80;99.90;;;;;;4902885;29;20432;-71
2021/06/30 17:14:07;;;;;;;5.40;3.93;;;17.80;99.90;;;;;;4856540;29;21055;-70
2021/06/30 17:17:05;;;;;;;;;;;;;;;;;;;;;
2021/06/30 17:21:19;;;;;;;4.20;2.93;;;17.70;99.90;;;;;;4842431;29;21511;-71
2021/06/30 17:28:47;;;;;;;5.33;3.50;;;17.60;99.90;;;;;;4850510;29;20487;-71
2021/06/30 17:32:35;;;;;;;8.50;3.67;;;17.60;99.90;;;;;;4756767;29;20620;-70
2021/06/30 17:35:58;;;;;;;4.27;3.47;;;17.60;99.90;;;;;;4747926;29;20447;-70
2021/06/30 17:39:38;;;;;;;4.30;3.60;;;17.60;99.90;;;;;;4838937;29;20504;-70
2021/06/30 17:43:30;;;;;;;3.77;3.40;;;17.70;99.90;;;;;;4870636;29;21038;-70
2021/06/30 17:47:01;;;;;;;3.67;3.13;;;17.60;99.90;;;;;;4902370;29;20597;-70
2021/06/30 17:54:12;;;;;;;4.60;3.40;;;17.40;99.90;;;;;;4974132;28;20991;-70
2021/06/30 18:06:19;;;;;;;;;;;;;;;;;;;;;